Time;durP1;ratioP1;P1;durP2;ratioP2;P2;SDS_P1;SDS_P2;PMS_P1;PMS_P2;Temp;Humidity;BMP_temperature;BMP_pressure;BME280_temperature;BME280_humidity;BME280_pressure;Samples;Min_cycle;Max_cycle;Signal;HPM_P1;HPM_P2
2022/12/18 00:01:44;;;;;;;0.20;0.20;;;-6.90;99.90;;;-7.22;100.00;101359.78;4855388;29;20260;-66
2022/12/18 00:04:24;;;;;;;0.90;0.90;;;-6.80;99.90;;;-7.28;100.00;101348.94;4843240;29;20826;-67
2022/12/18 00:06:52;;;;;;;0.20;0.20;;;-6.90;99.90;;;-7.24;100.00;101351.03;4851784;29;20268;-68
2022/12/18 00:09:20;;;;;;;0.38;0.38;;;-6.80;99.90;;;-7.20;100.00;101346.31;4833443;29;20317;-67
2022/12/18 00:11:50;;;;;;;0.30;0.30;;;-6.80;99.90;;;-7.13;100.00;101348.69;4841775;29;20239;-67
2022/12/18 00:14:17;;;;;;;0.30;0.30;;;-6.60;99.90;;;-7.15;100.00;101352.78;4845510;29;20351;-67
2022/12/18 00:16:46;;;;;;;0.38;0.38;;;-6.70;99.90;;;-7.05;100.00;101356.22;4833668;29;20442;-67
2022/12/18 00:19:14;;;;;;;0.30;0.30;;;-6.70;99.90;;;-6.98;100.00;101361.16;4848872;29;20232;-67
2022/12/18 00:21:42;;;;;;;0.30;0.30;;;-6.60;99.90;;;-7.05;100.00;101361.38;4853198;29;20328;-67
2022/12/18 00:24:10;;;;;;;0.30;0.30;;;-6.60;99.90;;;-7.08;100.00;101361.06;4851460;29;20293;-67
2022/12/18 00:26:39;;;;;;;0.20;0.20;;;-6.60;99.90;;;-7.07;100.00;101371.50;4860504;29;20316;-67
2022/12/18 00:29:14;;;;;;;0.20;0.20;;;-6.60;99.90;;;-7.11;100.00;101374.56;4855071;29;20701;-67
2022/12/18 00:31:43;;;;;;;0.30;0.30;;;-6.70;99.90;;;-7.14;100.00;101371.69;4862889;29;20243;-67
2022/12/18 00:34:13;;;;;;;0.30;0.30;;;-6.70;99.90;;;-7.05;100.00;101375.13;4842813;29;20246;-67
2022/12/18 00:36:41;;;;;;;0.20;0.20;;;-6.70;99.90;;;-7.05;100.00;101372.56;4849474;29;20236;-67
2022/12/18 00:39:10;;;;;;;0.30;0.30;;;-6.60;99.90;;;-6.97;100.00;101379.31;4868352;29;20272;-67
2022/12/18 00:44:28;;;;;;;0.30;0.30;;;-6.60;99.90;;;-6.97;100.00;101387.03;4858153;29;20255;-67
2022/12/18 00:46:55;;;;;;;0.30;0.30;;;-6.60;99.90;;;-7.07;100.00;101384.34;4885012;23;20323;-79
2022/12/18 00:49:22;;;;;;;1.38;1.38;;;-6.60;99.90;;;-7.13;100.00;101371.84;4886156;29;20296;-76
2022/12/18 00:51:49;;;;;;;0.20;0.20;;;-6.70;99.90;;;-7.03;100.00;101375.25;4890794;29;20324;-80
2022/12/18 00:54:17;;;;;;;0.30;0.30;;;-6.60;99.90;;;-7.07;100.00;101376.66;4885709;29;20386;-76
2022/12/18 00:56:44;;;;;;;0.30;0.30;;;-6.60;99.90;;;-7.17;100.00;101368.84;4887549;29;20247;-76
2022/12/18 00:59:17;;;;;;;0.30;0.30;;;-6.70;99.90;;;-7.07;100.00;101388.59;4886639;29;20505;-76
2022/12/18 01:01:44;;;;;;;0.40;0.40;;;-6.70;99.90;;;-6.97;100.00;101397.31;4884392;29;20241;-76
2022/12/18 01:04:12;;;;;;;0.38;0.38;;;-6.60;99.90;;;-7.08;100.00;101382.53;4887107;29;20255;-79
2022/12/18 01:06:39;;;;;;;0.30;0.30;;;-6.60;99.90;;;-7.06;100.00;101388.72;4881655;29;20251;-74
2022/12/18 01:09:06;;;;;;;0.20;0.20;;;-6.60;99.90;;;-6.99;100.00;101392.78;4882983;29;20764;-76
2022/12/18 01:11:33;;;;;;;0.30;0.30;;;-6.60;99.90;;;-7.03;100.00;101391.59;4882219;29;20311;-75
2022/12/18 01:14:00;;;;;;;0.30;0.30;;;-6.60;99.90;;;-7.00;100.00;101397.03;4848947;29;20295;-76
2022/12/18 01:16:27;;;;;;;0.20;0.20;;;-6.60;99.90;;;-6.91;100.00;101394.41;4882656;29;20239;-74
2022/12/18 01:18:55;;;;;;;0.30;0.30;;;-6.50;99.90;;;-6.91;100.00;101396.97;4883385;29;20228;-76
2022/12/18 01:21:24;;;;;;;0.30;0.30;;;-6.50;99.90;;;-6.96;100.00;101398.22;4881332;29;20319;-77
2022/12/18 01:23:56;;;;;;;0.20;0.20;;;-6.50;99.90;;;-6.96;100.00;101393.97;4882639;29;20228;-74
2022/12/18 01:26:25;;;;;;;0.30;0.30;;;-6.50;99.90;;;-6.95;100.00;101394.88;4867352;29;20308;-73
2022/12/18 01:28:55;;;;;;;0.20;0.20;;;-6.50;99.90;;;-6.97;100.00;101386.13;4880045;29;20324;-76
2022/12/18 01:31:29;;;;;;;0.20;0.20;;;-6.50;99.90;;;-7.05;100.00;101377.69;4890544;29;20236;-74
2022/12/18 01:34:00;;;;;;;0.50;0.50;;;-6.60;99.90;;;-7.02;100.00;101395.97;4888907;29;20239;-75
2022/12/18 01:36:35;;;;;;;0.20;0.20;;;-6.60;99.90;;;-7.03;100.00;101403.53;4887656;29;20355;-74
2022/12/18 01:42:01;;;;;;;0.20;0.20;;;-6.60;99.90;;;-6.95;100.00;101415.44;5136592;23;20312;-77
2022/12/18 01:45:13;;;;;;;0.20;0.20;;;-6.30;99.90;;;-6.99;100.00;101410.78;4868330;29;20255;-77
2022/12/18 01:47:45;;;;;;;0.30;0.30;;;-6.60;99.90;;;-7.02;100.00;101407.94;4869941;29;20235;-76
2022/12/18 01:50:27;;;;;;;0.30;0.30;;;-6.60;99.90;;;-7.06;100.00;101399.03;4850504;29;20308;-76
2022/12/18 01:53:02;;;;;;;0.45;0.45;;;-6.50;99.90;;;-7.01;100.00;101399.44;4879999;29;20331;-76
2022/12/18 01:55:36;;;;;;;0.30;0.30;;;-6.60;99.90;;;-7.04;100.00;101402.63;4851817;29;20231;-76
2022/12/18 01:58:03;;;;;;;0.30;0.30;;;-6.60;99.90;;;-6.97;100.00;101396.41;4861554;29;20320;-76
2022/12/18 02:00:31;;;;;;;0.20;0.20;;;-6.50;99.90;;;-7.00;100.00;101401.25;4861398;29;20233;-76
2022/12/18 02:02:58;;;;;;;0.20;0.20;;;-6.50;99.90;;;-6.97;100.00;101407.59;4860110;29;20238;-76
2022/12/18 02:05:48;;;;;;;0.30;0.30;;;-6.50;99.90;;;-7.15;100.00;101404.19;4864540;29;20245;-76
2022/12/18 02:08:47;;;;;;;0.20;0.20;;;-6.70;99.90;;;-7.00;100.00;101417.59;4840984;29;20274;-76
2022/12/18 02:11:44;;;;;;;0.30;0.30;;;-6.60;99.90;;;-6.98;100.00;101417.72;4847234;29;20317;-77
2022/12/18 02:14:20;;;;;;;0.30;0.30;;;-6.60;99.90;;;-7.12;100.00;101409.63;4857621;29;20344;-76
2022/12/18 02:17:15;;;;;;;0.30;0.30;;;-6.70;99.90;;;-7.14;100.00;101412.81;4860727;29;20320;-76
2022/12/18 02:20:03;;;;;;;0.30;0.30;;;-6.70;99.90;;;-7.07;100.00;101424.59;4864228;29;20244;-76
2022/12/18 02:22:55;;;;;;;0.30;0.30;;;-6.70;99.90;;;-7.06;100.00;101434.09;4865444;29;20330;-76
2022/12/18 02:26:03;;;;;;;0.70;0.70;;;-6.60;99.90;;;-7.16;100.00;101409.19;4877433;29;20246;-76
2022/12/18 02:28:36;;;;;;;0.68;0.68;;;-6.70;99.90;;;-7.14;100.00;101406.00;4848855;29;20229;-77
2022/12/18 02:31:08;;;;;;;0.30;0.30;;;-6.70;99.90;;;-7.01;100.00;101423.50;4868915;29;20319;-77
2022/12/18 02:33:37;;;;;;;0.20;0.20;;;-6.60;99.90;;;-7.04;100.00;101404.31;4843376;29;20240;-76
2022/12/18 02:36:07;;;;;;;0.20;0.20;;;-6.60;99.90;;;-7.06;100.00;101406.72;4853297;29;20319;-76
2022/12/18 02:38:36;;;;;;;0.30;0.30;;;-6.60;99.90;;;-7.09;100.00;101403.88;4851177;29;20351;-76
2022/12/18 02:41:04;;;;;;;0.30;0.30;;;-6.60;99.90;;;-7.02;100.00;101424.25;4859842;29;20245;-76
2022/12/18 02:43:31;;;;;;;0.30;0.30;;;-6.60;99.90;;;-7.00;100.00;101432.13;4860889;29;20741;-76
2022/12/18 02:46:00;;;;;;;0.20;0.20;;;-6.60;99.90;;;-7.01;100.00;101436.34;4858721;29;20240;-76
2022/12/18 02:48:35;;;;;;;0.30;0.30;;;-6.50;99.90;;;-7.11;100.00;101419.16;4854577;29;20369;-76
2022/12/18 02:51:31;;;;;;;0.52;0.52;;;-6.60;99.90;;;-7.19;100.00;101401.19;4858005;29;20315;-76
2022/12/18 02:54:18;;;;;;;0.30;0.30;;;-6.70;99.90;;;-7.10;100.00;101405.53;4862629;29;20320;-76
2022/12/18 02:56:55;;;;;;;0.30;0.30;;;-6.70;99.90;;;-7.02;100.00;101420.78;4856191;29;20316;-76
2022/12/18 02:59:36;;;;;;;0.30;0.30;;;-6.70;99.90;;;-7.16;100.00;101417.81;4859929;29;20316;-76
2022/12/18 03:02:26;;;;;;;0.30;0.30;;;-6.70;99.90;;;-7.11;100.00;101407.97;4851129;29;20364;-76
2022/12/18 03:05:08;;;;;;;0.30;0.30;;;-6.70;99.90;;;-7.03;100.00;101400.97;4865887;29;20288;-76
2022/12/18 03:07:53;;;;;;;0.30;0.30;;;-6.60;99.90;;;-7.02;100.00;101395.06;4856889;29;20274;-76
2022/12/18 03:10:28;;;;;;;0.30;0.30;;;-6.60;99.90;;;-7.06;100.00;101404.16;4849786;29;20343;-76
2022/12/18 03:13:06;;;;;;;0.50;0.50;;;-6.60;99.90;;;-6.94;100.00;101423.31;4848169;29;20307;-77
2022/12/18 03:15:48;;;;;;;0.20;0.20;;;-6.60;99.90;;;-6.93;100.00;101421.63;4866011;29;20244;-77
2022/12/18 03:18:32;;;;;;;1.23;1.23;;;-6.50;99.90;;;-6.99;100.00;101415.91;4858730;29;20301;-77
2022/12/18 03:21:05;;;;;;;0.20;0.20;;;-6.60;99.90;;;-7.03;100.00;101411.25;4851680;29;20237;-76
2022/12/18 03:23:40;;;;;;;1.10;1.10;;;-6.60;99.90;;;-6.97;100.00;101409.25;4858860;29;20240;-77
2022/12/18 03:26:13;;;;;;;0.40;0.40;;;-6.60;99.90;;;-6.89;100.00;101422.06;4848373;29;20244;-76
2022/12/18 03:28:51;;;;;;;0.30;0.30;;;-6.50;99.90;;;-6.93;100.00;101425.13;4860687;29;20256;-76
2022/12/18 03:31:22;;;;;;;0.75;0.75;;;-6.50;99.90;;;-6.92;100.00;101426.03;4865873;29;20328;-76
2022/12/18 03:34:03;;;;;;;0.70;0.70;;;-6.50;99.90;;;-6.97;100.00;101414.41;4842076;29;20261;-76
2022/12/18 03:36:31;;;;;;;0.40;0.40;;;-6.50;99.90;;;-6.98;100.00;101428.00;4850234;29;20274;-77
2022/12/18 03:38:58;;;;;;;0.30;0.30;;;-6.60;99.90;;;-7.01;100.00;101430.31;4843319;29;20330;-77
2022/12/18 03:41:56;;;;;;;0.40;0.40;;;-6.60;99.90;;;-7.05;100.00;101412.78;4862353;29;20300;-76
2022/12/18 03:44:43;;;;;;;0.20;0.20;;;-6.60;99.90;;;-7.12;100.00;101417.34;4869912;29;20229;-76
2022/12/18 03:47:19;;;;;;;0.30;0.30;;;-6.70;99.90;;;-7.13;100.00;101419.78;4856351;29;20296;-76
2022/12/18 03:50:05;;;;;;;0.73;0.73;;;-6.70;99.90;;;-7.05;100.00;101425.63;4849184;29;20275;-76
2022/12/18 03:53:17;;;;;;;0.28;0.28;;;-6.70;99.90;;;-7.00;100.00;101430.44;4873548;29;20328;-76
2022/12/18 03:55:45;;;;;;;0.30;0.30;;;-6.60;99.90;;;-6.99;100.00;101428.78;4852738;29;20322;-77
2022/12/18 03:58:18;;;;;;;0.30;0.30;;;-6.60;99.90;;;-7.01;100.00;101426.06;4858566;29;20260;-76
2022/12/18 04:00:47;;;;;;;0.30;0.30;;;-6.60;99.90;;;-7.01;100.00;101430.31;4858626;29;20256;-77
2022/12/18 04:03:16;;;;;;;0.30;0.30;;;-6.60;99.90;;;-7.10;100.00;101420.97;4867050;29;20292;-76
2022/12/18 04:05:45;;;;;;;0.52;0.52;;;-6.60;99.90;;;-7.02;100.00;101420.78;4865467;29;20268;-76
2022/12/18 04:08:13;;;;;;;0.30;0.30;;;-6.60;99.90;;;-7.10;100.00;101413.25;4866900;29;20320;-76
2022/12/18 04:10:40;;;;;;;0.30;0.30;;;-6.60;99.90;;;-7.02;100.00;101421.69;4857433;29;20285;-76
2022/12/18 04:13:08;;;;;;;1.55;1.55;;;-6.60;99.90;;;-6.99;100.00;101427.13;4863190;29;20229;-76
2022/12/18 04:15:37;;;;;;;0.30;0.30;;;-6.60;99.90;;;-7.13;100.00;101420.69;4852589;29;20331;-76
2022/12/18 04:18:04;;;;;;;0.30;0.30;;;-6.60;99.90;;;-7.14;100.00;101417.97;4849841;29;20263;-76
2022/12/18 04:20:31;;;;;;;0.40;0.40;;;-6.70;99.90;;;-6.96;100.00;101432.53;4868817;29;20305;-76
2022/12/18 04:22:58;;;;;;;0.30;0.30;;;-6.60;99.90;;;-6.99;100.00;101432.25;4866453;29;20323;-76
2022/12/18 04:25:24;;;;;;;0.30;0.30;;;-6.60;99.90;;;-6.95;100.00;101431.78;4868030;29;20229;-76
2022/12/18 04:27:51;;;;;;;0.30;0.30;;;-6.50;99.90;;;-6.91;100.00;101431.31;4873356;29;20249;-76
2022/12/18 04:30:18;;;;;;;0.30;0.30;;;-6.50;99.90;;;-6.96;100.00;101422.25;4870527;29;20339;-76
2022/12/18 04:32:45;;;;;;;0.30;0.30;;;-6.50;99.90;;;-6.93;100.00;101417.41;4864963;29;20316;-76
2022/12/18 04:35:18;;;;;;;2.45;2.25;;;-6.50;99.90;;;-7.03;100.00;101409.59;4860820;29;20241;-76
2022/12/18 04:37:45;;;;;;;0.20;0.20;;;-6.60;99.90;;;-6.98;100.00;101422.88;4869869;29;20316;-76
2022/12/18 04:40:13;;;;;;;0.30;0.30;;;-6.60;99.90;;;-7.03;100.00;101421.53;4866611;29;20304;-75
2022/12/18 04:42:40;;;;;;;0.20;0.20;;;-6.60;99.90;;;-6.99;100.00;101427.13;4871911;29;20309;-76
2022/12/18 04:45:09;;;;;;;0.30;0.30;;;-6.60;99.90;;;-6.85;100.00;101433.53;4865957;29;20705;-76
2022/12/18 04:47:36;;;;;;;0.30;0.30;;;-6.50;99.90;;;-6.90;100.00;101427.06;4864690;29;20326;-76
2022/12/18 04:50:03;;;;;;;0.20;0.20;;;-6.50;99.90;;;-6.97;100.00;101414.41;4873142;29;20323;-76
2022/12/18 04:52:30;;;;;;;0.20;0.20;;;-6.50;99.90;;;-6.97;100.00;101424.69;4858222;29;20296;-76
2022/12/18 04:54:57;;;;;;;0.30;0.30;;;-6.60;99.90;;;-6.95;100.00;101425.72;4860498;29;20264;-76
2022/12/18 04:57:24;;;;;;;0.20;0.20;;;-6.60;99.90;;;-7.12;100.00;101411.31;4866503;29;20331;-76
2022/12/18 04:59:51;;;;;;;0.30;0.30;;;-6.60;99.90;;;-6.99;100.00;101424.53;4865470;29;20301;-76
2022/12/18 05:02:18;;;;;;;0.30;0.30;;;-6.60;99.90;;;-7.03;100.00;101435.28;4863328;29;20315;-76
2022/12/18 05:04:45;;;;;;;0.30;0.30;;;-6.60;99.90;;;-6.87;100.00;101447.94;4875787;29;20243;-76
2022/12/18 05:07:12;;;;;;;0.30;0.30;;;-6.50;99.90;;;-6.81;100.00;101445.94;4871762;29;20324;-76
2022/12/18 05:09:40;;;;;;;0.32;0.32;;;-6.50;99.90;;;-6.99;100.00;101429.69;4847284;29;20327;-76
2022/12/18 05:12:07;;;;;;;0.20;0.20;;;-6.40;99.90;;;-6.96;100.00;101439.34;4872533;29;20608;-76
2022/12/18 05:14:34;;;;;;;0.30;0.30;;;-6.50;99.90;;;-6.97;100.00;101441.03;4870333;29;20236;-76
2022/12/18 05:17:01;;;;;;;0.30;0.30;;;-6.50;99.90;;;-7.07;100.00;101422.91;4858064;29;20235;-76
2022/12/18 05:19:28;;;;;;;0.68;0.68;;;-6.60;99.90;;;-7.03;100.00;101429.25;4867851;29;20322;-76
2022/12/18 05:21:55;;;;;;;0.25;0.25;;;-6.60;99.90;;;-7.04;100.00;101427.44;4867926;29;20308;-77
2022/12/18 05:24:22;;;;;;;0.20;0.20;;;-6.60;99.90;;;-7.02;100.00;101429.41;4861529;29;20267;-76
2022/12/18 05:26:50;;;;;;;0.30;0.30;;;-6.60;99.90;;;-6.98;100.00;101431.50;4857240;29;20761;-76
2022/12/18 05:29:17;;;;;;;0.30;0.30;;;-6.60;99.90;;;-7.01;100.00;101427.72;4869423;29;20324;-77
2022/12/18 05:31:44;;;;;;;0.20;0.20;;;-6.60;99.90;;;-7.04;100.00;101430.91;4873771;29;20242;-76
2022/12/18 05:34:11;;;;;;;0.30;0.30;;;-6.60;99.90;;;-7.01;100.00;101431.22;4868733;29;20233;-76
2022/12/18 05:36:38;;;;;;;0.40;0.40;;;-6.50;99.90;;;-7.15;100.00;101424.78;4865302;29;20236;-76
2022/12/18 05:39:06;;;;;;;0.30;0.30;;;-6.70;99.90;;;-7.05;100.00;101434.25;4864661;29;20712;-76
2022/12/18 05:41:33;;;;;;;0.30;0.30;;;-6.70;99.90;;;-6.97;100.00;101440.13;4862215;29;20260;-76
2022/12/18 05:44:00;;;;;;;0.30;0.30;;;-6.60;99.90;;;-7.13;100.00;101423.25;4860291;29;20296;-76
2022/12/18 05:46:27;;;;;;;0.30;0.30;;;-6.60;99.90;;;-7.05;100.00;101438.50;4868230;29;20240;-76
2022/12/18 05:48:55;;;;;;;0.30;0.30;;;-6.70;99.90;;;-7.00;100.00;101434.69;4872994;29;20259;-76
2022/12/18 05:51:22;;;;;;;0.57;0.57;;;-6.60;99.90;;;-7.11;100.00;101426.88;4858191;29;20336;-76
2022/12/18 05:53:49;;;;;;;0.68;0.68;;;-6.70;99.90;;;-7.12;100.00;101424.16;4868651;29;20233;-76
2022/12/18 05:56:21;;;;;;;0.40;0.40;;;-6.70;99.90;;;-7.13;100.00;101422.34;4870639;29;20246;-76
2022/12/18 05:58:52;;;;;;;0.32;0.32;;;-6.70;99.90;;;-7.25;100.00;101416.03;4866913;29;20667;-76
2022/12/18 06:01:26;;;;;;;0.30;0.30;;;-6.80;99.90;;;-7.16;100.00;101424.63;4868020;29;20256;-76
2022/12/18 06:03:54;;;;;;;0.30;0.30;;;-6.80;99.90;;;-7.27;100.00;101427.84;4867261;29;20237;-76
2022/12/18 06:06:24;;;;;;;0.40;0.40;;;-6.70;99.90;;;-7.25;100.00;101429.81;4865526;29;20261;-76
2022/12/18 06:08:52;;;;;;;0.25;0.25;;;-6.80;99.90;;;-7.23;100.00;101433.41;4868331;29;20260;-76
2022/12/18 06:11:24;;;;;;;0.30;0.30;;;-6.80;99.90;;;-7.24;100.00;101434.19;4864474;29;20693;-76
2022/12/18 06:13:56;;;;;;;0.40;0.40;;;-6.80;99.90;;;-7.31;100.00;101436.03;4868255;29;20247;-76
2022/12/18 06:16:26;;;;;;;0.30;0.30;;;-6.90;99.90;;;-7.45;100.00;101427.00;4868342;29;20240;-76
2022/12/18 06:19:00;;;;;;;0.32;0.32;;;-7.00;99.90;;;-7.43;100.00;101436.66;4844676;29;20260;-77
2022/12/18 06:21:28;;;;;;;0.30;0.30;;;-7.00;99.90;;;-7.37;100.00;101427.72;4860490;29;20237;-77
2022/12/18 06:23:55;;;;;;;0.30;0.30;;;-7.00;99.90;;;-7.48;100.00;101431.84;4861560;29;20327;-76
2022/12/18 06:26:23;;;;;;;0.40;0.40;;;-7.10;99.90;;;-7.60;100.00;101408.44;4871387;29;20299;-76
2022/12/18 06:28:54;;;;;;;0.30;0.30;;;-7.10;99.90;;;-7.40;100.00;101433.47;4856976;29;20236;-76
2022/12/18 06:31:21;;;;;;;0.30;0.30;;;-7.00;99.90;;;-7.53;100.00;101421.13;4869983;29;20343;-76
2022/12/18 06:33:48;;;;;;;0.30;0.30;;;-7.10;99.90;;;-7.57;100.00;101429.28;4866340;29;20640;-76
2022/12/18 06:36:16;;;;;;;0.30;0.30;;;-7.10;99.90;;;-7.75;100.00;101419.81;4864057;29;20323;-76
2022/12/18 06:38:44;;;;;;;0.30;0.30;;;-7.30;99.90;;;-7.71;100.00;101421.03;4871703;29;20228;-77
2022/12/18 06:41:14;;;;;;;0.30;0.30;;;-7.30;99.90;;;-7.57;100.00;101443.81;4866733;29;20320;-76
2022/12/18 06:43:42;;;;;;;0.30;0.30;;;-7.20;99.90;;;-7.61;100.00;101436.56;4879558;29;21495;-76
2022/12/18 06:46:10;;;;;;;0.50;0.50;;;-7.30;99.90;;;-7.62;100.00;101440.78;4865772;29;20232;-78
2022/12/18 06:48:37;;;;;;;0.30;0.30;;;-7.20;99.90;;;-7.67;100.00;101444.56;4863380;29;20232;-76
2022/12/18 06:51:05;;;;;;;0.30;0.30;;;-7.20;99.90;;;-7.70;100.00;101438.25;4843346;29;20260;-76
2022/12/18 06:53:33;;;;;;;0.32;0.32;;;-7.30;99.90;;;-7.70;100.00;101443.38;4855141;29;20323;-76
2022/12/18 06:56:06;;;;;;;0.40;0.40;;;-7.30;99.90;;;-7.91;100.00;101434.47;4855713;29;20229;-76
2022/12/18 06:58:36;;;;;;;0.40;0.40;;;-7.40;99.90;;;-7.93;100.00;101436.88;4854686;29;20240;-76
2022/12/18 07:01:08;;;;;;;0.30;0.30;;;-7.50;99.90;;;-7.92;100.00;101432.66;4857489;29;20336;-76
2022/12/18 07:03:37;;;;;;;0.40;0.40;;;-7.50;99.90;;;-7.85;100.00;101441.09;4855367;29;20240;-76
2022/12/18 07:06:05;;;;;;;0.40;0.40;;;-7.50;99.90;;;-7.92;100.00;101435.22;4860088;29;20720;-76
2022/12/18 07:08:41;;;;;;;0.30;0.30;;;-7.50;99.90;;;-8.08;100.00;101432.81;4857608;29;20328;-76
2022/12/18 07:11:18;;;;;;;0.40;0.40;;;-7.60;99.90;;;-7.96;100.00;101431.44;4857019;29;20244;-76
2022/12/18 07:13:46;;;;;;;0.30;0.30;;;-7.60;99.90;;;-8.10;100.00;101427.53;4859544;29;20276;-76
2022/12/18 07:16:16;;;;;;;1.83;1.05;;;-7.60;99.90;;;-8.34;100.00;101412.31;4860578;29;20279;-76
2022/12/18 07:18:52;;;;;;;0.35;0.35;;;-7.90;99.90;;;-8.34;100.00;101417.47;4876612;29;20672;-76
2022/12/18 07:21:22;;;;;;;0.40;0.40;;;-7.80;99.90;;;-8.50;100.00;101407.34;4877659;29;20236;-76
2022/12/18 07:23:49;;;;;;;0.40;0.40;;;-8.10;99.90;;;-8.30;100.00;101426.31;4882147;29;20275;-76
2022/12/18 07:26:20;;;;;;;0.40;0.40;;;-8.00;99.90;;;-8.46;100.00;101409.44;4917547;23;20281;-81
2022/12/18 07:28:48;;;;;;;0.40;0.40;;;-8.00;99.90;;;-8.26;100.00;101436.13;4915256;29;20253;-80
2022/12/18 07:31:21;;;;;;;0.30;0.30;;;-7.20;99.90;;;-8.24;100.00;101432.97;4949295;28;20237;-82
2022/12/18 07:33:50;;;;;;;0.40;0.40;;;-7.90;99.90;;;-8.54;100.00;101422.28;4929799;29;20229;-81
2022/12/18 07:36:18;;;;;;;0.40;0.40;;;-7.50;99.90;;;-8.36;100.00;101434.34;4944668;29;20245;-80
2022/12/18 07:38:48;;;;;;;0.30;0.30;;;-8.00;99.90;;;-8.55;100.00;101420.47;4933751;28;20226;-80
2022/12/18 07:41:16;;;;;;;0.30;0.30;;;-8.10;99.90;;;-8.45;100.00;101431.78;4936437;29;20234;-80
2022/12/18 07:43:43;;;;;;;0.65;0.65;;;-8.10;99.90;;;-8.29;100.00;101447.00;4936738;29;20242;-82
2022/12/18 07:46:13;;;;;;;0.40;0.40;;;-8.00;99.90;;;-8.30;100.00;101450.31;4937677;29;20222;-80
2022/12/18 07:48:42;;;;;;;0.40;0.40;;;-8.00;99.90;;;-8.32;100.00;101453.50;4938208;29;20237;-83
2022/12/18 07:51:13;;;;;;;0.40;0.40;;;-7.30;99.90;;;-8.30;100.00;101457.13;4929917;29;20314;-83
2022/12/18 07:53:41;;;;;;;0.50;0.50;;;-7.10;99.90;;;-8.35;100.00;101448.09;4940287;29;20234;-83
2022/12/18 07:56:12;;;;;;;0.50;0.50;;;-7.90;99.90;;;-8.23;100.00;101464.66;4937760;29;20234;-81
2022/12/18 07:58:58;;;;;;;0.70;0.70;;;-7.80;99.90;;;-8.32;100.00;101462.09;4936188;29;20222;-83
2022/12/18 08:01:26;;;;;;;0.40;0.40;;;-7.90;99.90;;;-8.27;100.00;101473.72;4931753;29;20230;-82
2022/12/18 08:03:54;;;;;;;2.00;1.85;;;-7.90;99.90;;;-8.16;100.00;101474.78;4920582;29;20226;-81
2022/12/18 08:06:21;;;;;;;0.40;0.40;;;-7.80;99.90;;;-8.10;100.00;101480.53;4931662;29;20231;-81
2022/12/18 08:08:55;;;;;;;1.15;1.15;;;-7.80;99.90;;;-8.07;100.00;101483.41;4931879;29;20234;-77
2022/12/18 08:11:25;;;;;;;0.40;0.40;;;-7.80;99.90;;;-8.04;100.00;101491.41;4935213;29;20234;-77
2022/12/18 08:13:53;;;;;;;0.40;0.40;;;-7.70;99.90;;;-7.97;100.00;101491.25;4940835;29;20323;-79
2022/12/18 08:16:21;;;;;;;0.40;0.40;;;-7.60;99.90;;;-7.99;100.00;101486.72;4945363;29;20313;-78
2022/12/18 08:18:49;;;;;;;0.40;0.40;;;-6.80;99.90;;;-7.94;100.00;101494.13;4936130;29;20241;-80
2022/12/18 08:21:23;;;;;;;0.30;0.30;;;-7.60;99.90;;;-7.84;100.00;101509.66;4938155;28;20242;-80
2022/12/18 08:23:53;;;;;;;0.40;0.40;;;-7.50;99.90;;;-7.75;100.00;101517.41;4938365;29;20254;-79
2022/12/18 08:26:20;;;;;;;0.40;0.40;;;-7.40;99.90;;;-7.73;100.00;101515.00;4930799;29;20269;-79
2022/12/18 08:28:48;;;;;;;0.30;0.30;;;-7.30;99.90;;;-7.68;100.00;101513.78;4933413;29;20234;-80
2022/12/18 08:31:17;;;;;;;0.40;0.40;;;-7.30;99.90;;;-7.74;100.00;101511.50;4919297;29;20257;-80
2022/12/18 08:33:45;;;;;;;0.30;0.30;;;-7.30;99.90;;;-7.66;100.00;101522.53;4917594;29;20258;-80
2022/12/18 08:36:12;;;;;;;0.30;0.30;;;-7.30;99.90;;;-7.60;100.00;101518.00;4935135;29;20272;-78
2022/12/18 08:38:39;;;;;;;0.38;0.38;;;-7.20;99.90;;;-7.61;100.00;101518.75;4929507;29;20317;-77
2022/12/18 08:41:13;;;;;;;0.30;0.30;;;-7.20;99.90;;;-7.57;100.00;101513.16;4926932;29;20234;-78
2022/12/18 08:46:35;;;;;;;0.30;0.30;;;-7.10;99.90;;;-7.45;100.00;101524.63;4933199;29;20305;-80
2022/12/18 08:49:04;;;;;;;0.30;0.30;;;-7.10;99.90;;;-7.40;100.00;101517.38;4934973;29;20230;-79
2022/12/18 08:51:31;;;;;;;0.30;0.30;;;-6.70;99.90;;;-7.37;100.00;101520.22;4934023;29;20231;-80
2022/12/18 08:53:58;;;;;;;0.30;0.30;;;-7.00;99.90;;;-7.27;100.00;101528.97;4926608;29;20340;-79
2022/12/18 08:56:25;;;;;;;0.20;0.20;;;-6.90;99.90;;;-7.22;100.00;101529.41;4928491;29;20234;-80
2022/12/18 08:58:54;;;;;;;0.30;0.30;;;-6.80;99.90;;;-7.16;100.00;101537.72;4931097;29;20230;-81
2022/12/18 09:01:22;;;;;;;0.40;0.40;;;-6.80;99.90;;;-7.15;100.00;101532.72;4936743;29;20273;-79
2022/12/18 09:03:50;;;;;;;0.30;0.30;;;-6.80;99.90;;;-7.11;100.00;101533.94;4930459;29;20222;-80
2022/12/18 09:06:20;;;;;;;0.30;0.30;;;-6.70;99.90;;;-7.10;100.00;101533.16;4934828;29;20310;-78
2022/12/18 09:08:48;;;;;;;0.30;0.30;;;-6.70;99.90;;;-7.03;100.00;101540.72;4931212;29;20250;-80
2022/12/18 09:11:21;;;;;;;0.30;0.30;;;-6.70;99.90;;;-6.98;100.00;101560.06;4927184;29;20230;-80
2022/12/18 09:13:49;;;;;;;0.30;0.30;;;-6.40;99.90;;;-6.94;100.00;101556.09;4916446;29;20254;-79
2022/12/18 09:16:17;;;;;;;1.05;1.05;;;-6.60;99.90;;;-6.98;100.00;101548.88;4930834;29;20321;-79
2022/12/18 09:18:44;;;;;;;0.20;0.20;;;-6.60;99.90;;;-6.93;100.00;101551.13;4934586;29;20234;-79
2022/12/18 09:21:20;;;;;;;0.30;0.30;;;-6.50;99.90;;;-6.92;100.00;101549.44;4925226;29;20259;-82
2022/12/18 09:23:56;;;;;;;0.30;0.30;;;-6.50;99.90;;;-6.91;100.00;101556.41;4940879;29;20277;-83
2022/12/18 09:26:30;;;;;;;0.22;0.22;;;-6.50;99.90;;;-6.82;100.00;101559.84;4937700;29;20226;-81
2022/12/18 09:28:58;;;;;;;0.40;0.40;;;-6.50;99.90;;;-6.83;100.00;101565.75;4918785;29;20226;-79
2022/12/18 09:31:25;;;;;;;0.30;0.30;;;-6.40;99.90;;;-6.85;100.00;101552.75;4930322;29;20238;-76
2022/12/18 09:33:56;;;;;;;0.30;0.30;;;-6.40;99.90;;;-6.70;100.00;101575.53;4930586;29;20241;-79
2022/12/18 09:36:23;;;;;;;0.88;0.88;;;-6.40;99.90;;;-6.66;100.00;101578.56;4923402;29;20234;-78
2022/12/18 09:38:51;;;;;;;0.30;0.30;;;-6.30;99.90;;;-6.50;100.00;101588.66;4906117;29;20261;-78
2022/12/18 09:41:40;;;;;;;0.30;0.30;;;-6.20;99.90;;;-6.42;100.00;101602.25;4925854;29;20703;-80
2022/12/18 09:44:28;;;;;;;0.30;0.30;;;-6.10;99.90;;;-6.47;100.00;101605.31;4909820;29;20265;-81
2022/12/18 09:47:01;;;;;;;0.30;0.30;;;-6.10;99.90;;;-6.48;100.00;101606.06;4915428;29;20226;-79
2022/12/18 09:49:33;;;;;;;0.40;0.40;;;-6.10;99.90;;;-6.38;100.00;101620.72;4930989;29;20679;-79
2022/12/18 09:52:12;;;;;;;0.20;0.20;;;-6.00;99.90;;;-6.28;100.00;101610.53;4908453;29;20230;-78
2022/12/18 09:54:43;;;;;;;0.20;0.20;;;-5.90;99.90;;;-6.24;100.00;101630.63;4906812;29;20314;-81
2022/12/18 09:57:22;;;;;;;0.90;0.90;;;-5.90;99.90;;;-6.14;100.00;101620.44;4919091;29;20234;-79
2022/12/18 09:59:56;;;;;;;0.30;0.30;;;-5.80;99.90;;;-6.10;100.00;101623.31;4913561;29;20234;-82
2022/12/18 10:02:26;;;;;;;0.85;0.85;;;-5.80;99.90;;;-6.03;100.00;101628.25;4938713;29;20694;-80
2022/12/18 10:05:14;;;;;;;0.30;0.30;;;-5.70;99.90;;;-6.00;100.00;101633.69;4933038;29;20234;-81
2022/12/18 10:07:50;;;;;;;0.30;0.30;;;-5.70;99.90;;;-6.07;100.00;101631.31;4912609;29;20270;-81
2022/12/18 10:10:46;;;;;;;0.30;0.30;;;-4.90;99.90;;;-6.04;100.00;101624.78;4909642;29;20234;-82
2022/12/18 10:13:30;;;;;;;1.25;1.25;;;-5.60;99.90;;;-6.02;100.00;101636.13;4913114;29;20231;-79
2022/12/18 10:16:04;;;;;;;0.43;0.43;;;-5.70;99.90;;;-5.96;100.00;101643.53;4926933;29;20234;-82
2022/12/18 10:22:57;;;;;;;1.35;1.00;;;-5.50;99.90;;;-5.76;100.00;101646.25;4915253;23;20244;-81
2022/12/18 10:25:36;;;;;;;0.50;0.50;;;-5.40;99.90;;;-5.61;100.00;101657.97;4895979;29;20289;-80
2022/12/18 10:28:15;;;;;;;0.40;0.40;;;-5.30;99.90;;;-5.50;100.00;101654.72;4893391;23;20239;-77
2022/12/18 10:30:43;;;;;;;0.20;0.20;;;-5.20;99.90;;;-5.51;100.00;101663.22;4876480;29;20244;-77
2022/12/18 10:33:22;;;;;;;0.30;0.30;;;-5.20;99.90;;;-5.55;100.00;101647.31;4868892;29;20336;-77
2022/12/18 10:35:53;;;;;;;0.30;0.30;;;-5.20;99.90;;;-5.51;100.00;101641.69;4861629;29;20232;-77
2022/12/18 10:38:31;;;;;;;0.30;0.30;;;-5.20;99.90;;;-5.46;100.00;101630.13;4861278;29;20289;-80